sensor_id;sensor_type;location;lat;lon;timestamp;P1;durP1;ratioP1;P2;durP2;ratioP2
67675;SDS011;54456;48.436;10.028;2023-06-14T03:15:53;10.82;;;4.72;;
67675;SDS011;54456;48.436;10.028;2023-06-14T03:17:23;10.90;;;5.07;;
67675;SDS011;54456;48.436;10.028;2023-06-14T03:18:54;10.57;;;5.22;;
67675;SDS011;54456;48.436;10.028;2023-06-14T03:20:24;11.50;;;5.07;;
67675;SDS011;54456;48.436;10.028;2023-06-14T03:22:00;10.95;;;5.18;;
67675;SDS011;54456;48.436;10.028;2023-06-14T03:23:30;11.90;;;4.77;;
67675;SDS011;54456;48.436;10.028;2023-06-14T03:25:01;10.15;;;4.82;;
67675;SDS011;54456;48.436;10.028;2023-06-14T03:26:34;10.07;;;4.70;;
67675;SDS011;54456;48.436;10.028;2023-06-14T03:28:04;9.93;;;4.60;;
67675;SDS011;54456;48.436;10.028;2023-06-14T03:29:35;9.77;;;4.50;;
67675;SDS011;54456;48.436;10.028;2023-06-14T03:31:06;9.80;;;4.53;;
67675;SDS011;54456;48.436;10.028;2023-06-14T03:32:36;9.15;;;4.30;;
67675;SDS011;54456;48.436;10.028;2023-06-14T03:34:06;10.40;;;4.97;;
67675;SDS011;54456;48.436;10.028;2023-06-14T03:35:37;12.95;;;4.65;;
67675;SDS011;54456;48.436;10.028;2023-06-14T03:37:07;10.53;;;4.63;;
67675;SDS011;54456;48.436;10.028;2023-06-14T03:38:37;10.20;;;4.40;;
67675;SDS011;54456;48.436;10.028;2023-06-14T03:41:43;9.15;;;4.65;;
67675;SDS011;54456;48.436;10.028;2023-06-14T03:43:14;10.17;;;4.87;;
67675;SDS011;54456;48.436;10.028;2023-06-14T03:44:44;11.50;;;4.47;;
67675;SDS011;54456;48.436;10.028;2023-06-14T03:46:14;10.10;;;4.50;;
67675;SDS011;54456;48.436;10.028;2023-06-14T03:47:44;8.80;;;4.37;;
67675;SDS011;54456;48.436;10.028;2023-06-14T03:49:15;9.23;;;4.45;;
67675;SDS011;54456;48.436;10.028;2023-06-14T03:50:47;8.73;;;4.65;;
67675;SDS011;54456;48.436;10.028;2023-06-14T03:52:17;10.88;;;4.80;;
67675;SDS011;54456;48.436;10.028;2023-06-14T03:55:23;9.75;;;4.40;;
67675;SDS011;54456;48.436;10.028;2023-06-14T03:56:55;9.70;;;4.75;;
67675;SDS011;54456;48.436;10.028;2023-06-14T03:58:26;9.80;;;4.72;;
67675;SDS011;54456;48.436;10.028;2023-06-14T03:59:58;10.52;;;4.75;;
67675;SDS011;54456;48.436;10.028;2023-06-14T04:01:28;12.97;;;4.83;;
67675;SDS011;54456;48.436;10.028;2023-06-14T04:02:59;10.23;;;4.30;;
67675;SDS011;54456;48.436;10.028;2023-06-14T04:04:30;10.60;;;5.00;;
67675;SDS011;54456;48.436;10.028;2023-06-14T04:06:00;10.30;;;5.13;;
67675;SDS011;54456;48.436;10.028;2023-06-14T04:07:30;9.57;;;4.70;;
67675;SDS011;54456;48.436;10.028;2023-06-14T04:09:01;11.15;;;4.90;;
67675;SDS011;54456;48.436;10.028;2023-06-14T04:10:32;9.65;;;4.78;;
67675;SDS011;54456;48.436;10.028;2023-06-14T04:12:02;10.47;;;5.03;;
67675;SDS011;54456;48.436;10.028;2023-06-14T04:13:33;10.07;;;4.75;;
67675;SDS011;54456;48.436;10.028;2023-06-14T04:15:05;10.13;;;4.88;;
67675;SDS011;54456;48.436;10.028;2023-06-14T04:16:36;11.90;;;5.57;;
67675;SDS011;54456;48.436;10.028;2023-06-14T04:18:06;10.88;;;5.10;;
67675;SDS011;54456;48.436;10.028;2023-06-14T04:19:37;11.80;;;5.43;;
67675;SDS011;54456;48.436;10.028;2023-06-14T04:21:08;11.00;;;5.47;;
67675;SDS011;54456;48.436;10.028;2023-06-14T04:22:38;10.38;;;5.00;;
67675;SDS011;54456;48.436;10.028;2023-06-14T04:24:08;12.93;;;5.10;;
67675;SDS011;54456;48.436;10.028;2023-06-14T04:25:43;11.00;;;5.20;;
67675;SDS011;54456;48.436;10.028;2023-06-14T04:27:15;12.23;;;5.35;;
67675;SDS011;54456;48.436;10.028;2023-06-14T04:28:51;11.68;;;5.82;;
67675;SDS011;54456;48.436;10.028;2023-06-14T04:30:21;10.75;;;4.88;;
67675;SDS011;54456;48.436;10.028;2023-06-14T04:31:57;10.15;;;5.32;;
67675;SDS011;54456;48.436;10.028;2023-06-14T04:33:28;10.52;;;5.35;;
67675;SDS011;54456;48.436;10.028;2023-06-14T04:34:59;10.10;;;5.20;;
67675;SDS011;54456;48.436;10.028;2023-06-14T04:36:34;10.48;;;5.50;;
67675;SDS011;54456;48.436;10.028;2023-06-14T04:38:04;11.18;;;5.18;;
67675;SDS011;54456;48.436;10.028;2023-06-14T04:39:35;9.90;;;5.20;;
67675;SDS011;54456;48.436;10.028;2023-06-14T04:41:05;11.65;;;5.05;;
67675;SDS011;54456;48.436;10.028;2023-06-14T04:42:35;12.23;;;5.32;;
67675;SDS011;54456;48.436;10.028;2023-06-14T04:44:06;11.93;;;4.93;;
67675;SDS011;54456;48.436;10.028;2023-06-14T04:45:37;10.60;;;5.35;;
67675;SDS011;54456;48.436;10.028;2023-06-14T04:47:09;11.10;;;5.22;;
67675;SDS011;54456;48.436;10.028;2023-06-14T04:48:42;12.05;;;5.53;;
67675;SDS011;54456;48.436;10.028;2023-06-14T04:50:12;9.98;;;5.00;;
67675;SDS011;54456;48.436;10.028;2023-06-14T04:51:43;11.43;;;5.37;;
67675;SDS011;54456;48.436;10.028;2023-06-14T04:53:15;10.82;;;5.28;;
67675;SDS011;54456;48.436;10.028;2023-06-14T04:54:46;11.00;;;5.10;;
67675;SDS011;54456;48.436;10.028;2023-06-14T04:56:17;10.30;;;5.22;;
67675;SDS011;54456;48.436;10.028;2023-06-14T04:57:47;13.87;;;5.80;;
67675;SDS011;54456;48.436;10.028;2023-06-14T04:59:19;10.82;;;5.00;;
67675;SDS011;54456;48.436;10.028;2023-06-14T05:00:49;12.30;;;5.63;;
67675;SDS011;54456;48.436;10.028;2023-06-14T05:02:19;11.77;;;5.60;;
67675;SDS011;54456;48.436;10.028;2023-06-14T05:03:49;10.13;;;5.30;;
67675;SDS011;54456;48.436;10.028;2023-06-14T05:05:20;11.15;;;5.40;;
67675;SDS011;54456;48.436;10.028;2023-06-14T05:06:50;10.77;;;5.23;;
67675;SDS011;54456;48.436;10.028;2023-06-14T05:08:21;10.13;;;5.10;;
67675;SDS011;54456;48.436;10.028;2023-06-14T05:09:54;10.90;;;5.05;;
67675;SDS011;54456;48.436;10.028;2023-06-14T05:11:24;10.67;;;4.87;;
67675;SDS011;54456;48.436;10.028;2023-06-14T05:12:56;10.38;;;4.82;;
67675;SDS011;54456;48.436;10.028;2023-06-14T05:14:26;9.07;;;4.57;;
67675;SDS011;54456;48.436;10.028;2023-06-14T05:15:57;11.18;;;4.70;;
67675;SDS011;54456;48.436;10.028;2023-06-14T05:17:28;9.45;;;4.72;;
67675;SDS011;54456;48.436;10.028;2023-06-14T05:18:58;9.82;;;4.45;;
67675;SDS011;54456;48.436;10.028;2023-06-14T05:20:29;10.75;;;4.93;;
67675;SDS011;54456;48.436;10.028;2023-06-14T05:22:00;10.13;;;4.85;;
67675;SDS011;54456;48.436;10.028;2023-06-14T05:23:30;9.63;;;4.68;;
67675;SDS011;54456;48.436;10.028;2023-06-14T05:25:01;10.85;;;4.90;;
67675;SDS011;54456;48.436;10.028;2023-06-14T05:26:31;11.60;;;4.30;;
67675;SDS011;54456;48.436;10.028;2023-06-14T05:28:02;9.45;;;4.43;;
67675;SDS011;54456;48.436;10.028;2023-06-14T05:29:32;12.15;;;4.70;;
67675;SDS011;54456;48.436;10.028;2023-06-14T05:31:03;11.30;;;4.60;;
67675;SDS011;54456;48.436;10.028;2023-06-14T05:32:33;10.73;;;4.87;;
67675;SDS011;54456;48.436;10.028;2023-06-14T05:34:04;9.32;;;4.40;;
67675;SDS011;54456;48.436;10.028;2023-06-14T05:35:34;10.35;;;4.72;;
67675;SDS011;54456;48.436;10.028;2023-06-14T05:37:04;12.10;;;4.60;;
67675;SDS011;54456;48.436;10.028;2023-06-14T05:38:35;13.20;;;5.53;;
67675;SDS011;54456;48.436;10.028;2023-06-14T05:40:06;10.95;;;4.72;;
67675;SDS011;54456;48.436;10.028;2023-06-14T05:41:37;11.98;;;4.75;;
67675;SDS011;54456;48.436;10.028;2023-06-14T05:43:07;8.52;;;4.43;;
67675;SDS011;54456;48.436;10.028;2023-06-14T05:44:38;9.47;;;4.40;;
67675;SDS011;54456;48.436;10.028;2023-06-14T05:46:08;8.90;;;4.63;;
67675;SDS011;54456;48.436;10.028;2023-06-14T05:47:38;9.80;;;4.83;;
67675;SDS011;54456;48.436;10.028;2023-06-14T05:49:09;8.57;;;4.60;;
67675;SDS011;54456;48.436;10.028;2023-06-14T05:50:39;9.23;;;4.57;;
67675;SDS011;54456;48.436;10.028;2023-06-14T05:52:09;10.30;;;4.88;;
67675;SDS011;54456;48.436;10.028;2023-06-14T05:53:41;12.48;;;4.95;;
67675;SDS011;54456;48.436;10.028;2023-06-14T05:55:15;10.13;;;4.60;;
67675;SDS011;54456;48.436;10.028;2023-06-14T05:56:46;8.68;;;4.32;;
67675;SDS011;54456;48.436;10.028;2023-06-14T05:58:17;10.95;;;4.95;;
67675;SDS011;54456;48.436;10.028;2023-06-14T05:59:47;11.20;;;4.78;;
67675;SDS011;54456;48.436;10.028;2023-06-14T06:01:17;9.80;;;4.87;;
67675;SDS011;54456;48.436;10.028;2023-06-14T06:02:48;8.98;;;4.72;;
67675;SDS011;54456;48.436;10.028;2023-06-14T06:04:19;11.35;;;4.80;;
67675;SDS011;54456;48.436;10.028;2023-06-14T06:05:49;10.40;;;4.80;;
67675;SDS011;54456;48.436;10.028;2023-06-14T06:07:20;9.70;;;4.77;;
67675;SDS011;54456;48.436;10.028;2023-06-14T06:08:50;10.00;;;5.03;;
67675;SDS011;54456;48.436;10.028;2023-06-14T06:10:20;10.43;;;4.70;;
67675;SDS011;54456;48.436;10.028;2023-06-14T06:11:54;10.98;;;4.80;;
67675;SDS011;54456;48.436;10.028;2023-06-14T06:13:24;10.93;;;5.28;;
67675;SDS011;54456;48.436;10.028;2023-06-14T06:14:55;9.93;;;4.75;;
67675;SDS011;54456;48.436;10.028;2023-06-14T06:16:25;10.23;;;4.72;;
67675;SDS011;54456;48.436;10.028;2023-06-14T06:17:56;10.23;;;5.30;;
67675;SDS011;54456;48.436;10.028;2023-06-14T06:19:26;9.40;;;4.93;;
67675;SDS011;54456;48.436;10.028;2023-06-14T06:20:56;12.37;;;5.07;;
67675;SDS011;54456;48.436;10.028;2023-06-14T06:22:27;9.30;;;4.80;;
67675;SDS011;54456;48.436;10.028;2023-06-14T06:23:57;9.30;;;4.55;;
67675;SDS011;54456;48.436;10.028;2023-06-14T06:25:28;10.18;;;4.78;;
67675;SDS011;54456;48.436;10.028;2023-06-14T06:26:58;10.60;;;4.85;;
67675;SDS011;54456;48.436;10.028;2023-06-14T06:28:29;10.57;;;4.90;;
67675;SDS011;54456;48.436;10.028;2023-06-14T06:29:59;10.18;;;4.50;;
67675;SDS011;54456;48.436;10.028;2023-06-14T06:31:29;9.47;;;4.60;;
67675;SDS011;54456;48.436;10.028;2023-06-14T06:33:00;9.67;;;4.83;;
67675;SDS011;54456;48.436;10.028;2023-06-14T06:34:30;12.15;;;5.65;;
67675;SDS011;54456;48.436;10.028;2023-06-14T06:36:00;9.37;;;4.77;;
67675;SDS011;54456;48.436;10.028;2023-06-14T06:37:31;11.70;;;4.82;;
67675;SDS011;54456;48.436;10.028;2023-06-14T06:39:01;11.37;;;5.23;;
67675;SDS011;54456;48.436;10.028;2023-06-14T06:40:33;9.95;;;4.80;;
67675;SDS011;54456;48.436;10.028;2023-06-14T06:42:04;10.10;;;5.37;;
67675;SDS011;54456;48.436;10.028;2023-06-14T06:43:35;9.68;;;4.80;;
67675;SDS011;54456;48.436;10.028;2023-06-14T06:45:05;9.77;;;4.77;;
67675;SDS011;54456;48.436;10.028;2023-06-14T06:46:43;9.10;;;4.57;;
67675;SDS011;54456;48.436;10.028;2023-06-14T06:48:13;9.57;;;4.60;;
67675;SDS011;54456;48.436;10.028;2023-06-14T06:49:43;8.93;;;4.78;;
67675;SDS011;54456;48.436;10.028;2023-06-14T06:51:14;10.00;;;4.82;;
67675;SDS011;54456;48.436;10.028;2023-06-14T06:52:44;12.23;;;4.80;;
67675;SDS011;54456;48.436;10.028;2023-06-14T06:54:15;10.77;;;5.10;;
67675;SDS011;54456;48.436;10.028;2023-06-14T06:55:45;8.40;;;4.30;;
67675;SDS011;54456;48.436;10.028;2023-06-14T06:57:16;9.68;;;4.75;;
67675;SDS011;54456;48.436;10.028;2023-06-14T06:58:46;9.90;;;4.90;;
67675;SDS011;54456;48.436;10.028;2023-06-14T07:00:16;9.57;;;5.10;;
67675;SDS011;54456;48.436;10.028;2023-06-14T07:01:47;11.15;;;4.93;;
67675;SDS011;54456;48.436;10.028;2023-06-14T07:03:18;12.57;;;4.40;;
67675;SDS011;54456;48.436;10.028;2023-06-14T07:04:48;9.77;;;5.03;;
67675;SDS011;54456;48.436;10.028;2023-06-14T07:06:19;10.60;;;4.85;;
67675;SDS011;54456;48.436;10.028;2023-06-14T07:07:50;10.43;;;4.70;;
67675;SDS011;54456;48.436;10.028;2023-06-14T07:09:20;12.23;;;4.87;;
67675;SDS011;54456;48.436;10.028;2023-06-14T07:10:51;11.65;;;4.72;;
67675;SDS011;54456;48.436;10.028;2023-06-14T07:12:21;10.60;;;4.83;;
67675;SDS011;54456;48.436;10.028;2023-06-14T07:13:51;9.38;;;4.75;;
67675;SDS011;54456;48.436;10.028;2023-06-14T07:15:22;9.27;;;5.22;;
67675;SDS011;54456;48.436;10.028;2023-06-14T07:16:52;10.73;;;4.73;;
67675;SDS011;54456;48.436;10.028;2023-06-14T07:18:23;9.90;;;4.77;;
67675;SDS011;54456;48.436;10.028;2023-06-14T07:19:53;9.27;;;4.57;;
67675;SDS011;54456;48.436;10.028;2023-06-14T07:21:23;10.20;;;4.80;;
67675;SDS011;54456;48.436;10.028;2023-06-14T07:22:55;10.52;;;4.80;;
67675;SDS011;54456;48.436;10.028;2023-06-14T07:24:26;11.57;;;5.17;;
67675;SDS011;54456;48.436;10.028;2023-06-14T07:25:58;9.35;;;5.15;;
67675;SDS011;54456;48.436;10.028;2023-06-14T07:27:28;13.03;;;4.87;;
67675;SDS011;54456;48.436;10.028;2023-06-14T07:28:58;9.87;;;5.03;;
67675;SDS011;54456;48.436;10.028;2023-06-14T07:30:29;9.90;;;4.65;;
67675;SDS011;54456;48.436;10.028;2023-06-14T07:32:03;8.57;;;4.57;;
67675;SDS011;54456;48.436;10.028;2023-06-14T07:33:33;9.82;;;4.57;;
67675;SDS011;54456;48.436;10.028;2023-06-14T07:35:04;9.50;;;4.82;;
67675;SDS011;54456;48.436;10.028;2023-06-14T07:36:34;8.40;;;4.20;;
67675;SDS011;54456;48.436;10.028;2023-06-14T07:38:06;8.73;;;4.60;;
67675;SDS011;54456;48.436;10.028;2023-06-14T07:39:36;9.02;;;4.25;;
67675;SDS011;54456;48.436;10.028;2023-06-14T07:41:07;8.73;;;4.50;;
67675;SDS011;54456;48.436;10.028;2023-06-14T07:42:37;10.85;;;4.95;;
67675;SDS011;54456;48.436;10.028;2023-06-14T07:44:07;9.17;;;4.50;;
67675;SDS011;54456;48.436;10.028;2023-06-14T07:45:38;9.47;;;4.60;;
67675;SDS011;54456;48.436;10.028;2023-06-14T07:47:08;9.93;;;4.30;;
67675;SDS011;54456;48.436;10.028;2023-06-14T07:48:38;9.55;;;4.82;;
67675;SDS011;54456;48.436;10.028;2023-06-14T07:50:09;9.68;;;4.30;;
67675;SDS011;54456;48.436;10.028;2023-06-14T07:51:40;9.98;;;4.70;;
67675;SDS011;54456;48.436;10.028;2023-06-14T07:53:10;9.03;;;4.50;;
67675;SDS011;54456;48.436;10.028;2023-06-14T07:54:40;9.38;;;4.63;;
67675;SDS011;54456;48.436;10.028;2023-06-14T07:56:11;9.25;;;4.45;;
67675;SDS011;54456;48.436;10.028;2023-06-14T07:57:41;10.57;;;4.30;;
67675;SDS011;54456;48.436;10.028;2023-06-14T07:59:12;9.32;;;4.53;;
67675;SDS011;54456;48.436;10.028;2023-06-14T08:00:43;10.32;;;4.28;;
67675;SDS011;54456;48.436;10.028;2023-06-14T08:02:13;9.10;;;4.30;;
67675;SDS011;54456;48.436;10.028;2023-06-14T08:03:44;10.27;;;4.40;;
67675;SDS011;54456;48.436;10.028;2023-06-14T08:05:15;8.20;;;4.32;;
67675;SDS011;54456;48.436;10.028;2023-06-14T08:06:45;9.20;;;4.47;;
67675;SDS011;54456;48.436;10.028;2023-06-14T08:08:16;8.68;;;4.63;;
67675;SDS011;54456;48.436;10.028;2023-06-14T08:09:46;9.25;;;4.43;;
67675;SDS011;54456;48.436;10.028;2023-06-14T08:11:17;9.27;;;4.50;;
67675;SDS011;54456;48.436;10.028;2023-06-14T08:12:47;10.73;;;4.35;;
67675;SDS011;54456;48.436;10.028;2023-06-14T08:14:20;8.88;;;4.00;;
67675;SDS011;54456;48.436;10.028;2023-06-14T08:15:51;8.60;;;4.30;;
67675;SDS011;54456;48.436;10.028;2023-06-14T08:17:21;8.80;;;4.03;;
67675;SDS011;54456;48.436;10.028;2023-06-14T08:18:52;14.07;;;4.30;;
67675;SDS011;54456;48.436;10.028;2023-06-14T08:20:22;8.60;;;4.22;;
67675;SDS011;54456;48.436;10.028;2023-06-14T08:21:52;10.23;;;4.20;;
67675;SDS011;54456;48.436;10.028;2023-06-14T08:23:24;9.68;;;4.40;;
67675;SDS011;54456;48.436;10.028;2023-06-14T08:24:54;8.50;;;4.70;;
67675;SDS011;54456;48.436;10.028;2023-06-14T08:26:25;10.57;;;4.13;;
67675;SDS011;54456;48.436;10.028;2023-06-14T08:29:29;7.97;;;3.90;;
67675;SDS011;54456;48.436;10.028;2023-06-14T08:31:00;8.05;;;4.10;;
67675;SDS011;54456;48.436;10.028;2023-06-14T08:32:31;9.52;;;4.10;;
67675;SDS011;54456;48.436;10.028;2023-06-14T08:34:01;8.73;;;4.50;;
67675;SDS011;54456;48.436;10.028;2023-06-14T08:35:32;8.10;;;3.88;;
67675;SDS011;54456;48.436;10.028;2023-06-14T08:37:02;8.93;;;4.30;;
67675;SDS011;54456;48.436;10.028;2023-06-14T08:38:33;8.57;;;4.00;;
67675;SDS011;54456;48.436;10.028;2023-06-14T08:40:03;8.50;;;4.23;;
67675;SDS011;54456;48.436;10.028;2023-06-14T08:41:36;8.73;;;4.13;;
67675;SDS011;54456;48.436;10.028;2023-06-14T08:43:06;9.65;;;4.10;;
67675;SDS011;54456;48.436;10.028;2023-06-14T08:44:37;8.63;;;4.15;;
67675;SDS011;54456;48.436;10.028;2023-06-14T08:46:07;8.63;;;3.90;;
67675;SDS011;54456;48.436;10.028;2023-06-14T08:47:40;7.45;;;3.90;;
67675;SDS011;54456;48.436;10.028;2023-06-14T08:49:11;9.77;;;4.22;;
67675;SDS011;54456;48.436;10.028;2023-06-14T08:50:42;7.78;;;3.80;;
67675;SDS011;54456;48.436;10.028;2023-06-14T08:52:13;9.55;;;3.92;;
67675;SDS011;54456;48.436;10.028;2023-06-14T08:53:54;7.60;;;3.75;;
67675;SDS011;54456;48.436;10.028;2023-06-14T08:55:31;9.90;;;4.00;;
67675;SDS011;54456;48.436;10.028;2023-06-14T08:57:02;7.35;;;3.45;;
67675;SDS011;54456;48.436;10.028;2023-06-14T08:58:34;8.32;;;3.60;;
67675;SDS011;54456;48.436;10.028;2023-06-14T09:00:06;7.88;;;3.58;;
67675;SDS011;54456;48.436;10.028;2023-06-14T09:01:44;8.35;;;4.00;;
67675;SDS011;54456;48.436;10.028;2023-06-14T09:03:15;7.55;;;3.50;;
67675;SDS011;54456;48.436;10.028;2023-06-14T09:04:45;8.77;;;3.30;;
67675;SDS011;54456;48.436;10.028;2023-06-14T09:06:16;6.40;;;3.03;;
67675;SDS011;54456;48.436;10.028;2023-06-14T09:07:53;8.13;;;3.60;;
67675;SDS011;54456;48.436;10.028;2023-06-14T09:09:25;8.48;;;3.80;;
67675;SDS011;54456;48.436;10.028;2023-06-14T09:10:58;7.30;;;3.42;;
67675;SDS011;54456;48.436;10.028;2023-06-14T09:12:28;8.45;;;3.72;;
67675;SDS011;54456;48.436;10.028;2023-06-14T09:14:00;8.82;;;3.72;;
67675;SDS011;54456;48.436;10.028;2023-06-14T09:15:31;7.32;;;3.40;;
67675;SDS011;54456;48.436;10.028;2023-06-14T09:17:02;7.22;;;3.60;;
67675;SDS011;54456;48.436;10.028;2023-06-14T09:18:36;7.85;;;3.58;;
67675;SDS011;54456;48.436;10.028;2023-06-14T09:20:07;8.95;;;3.75;;
67675;SDS011;54456;48.436;10.028;2023-06-14T09:21:49;9.07;;;3.25;;
67675;SDS011;54456;48.436;10.028;2023-06-14T09:23:22;8.77;;;3.72;;
67675;SDS011;54456;48.436;10.028;2023-06-14T09:24:53;7.30;;;3.30;;
67675;SDS011;54456;48.436;10.028;2023-06-14T09:26:23;9.25;;;3.58;;
67675;SDS011;54456;48.436;10.028;2023-06-14T09:27:54;7.05;;;3.25;;
67675;SDS011;54456;48.436;10.028;2023-06-14T09:29:24;7.47;;;3.50;;
67675;SDS011;54456;48.436;10.028;2023-06-14T09:30:56;7.55;;;3.17;;
67675;SDS011;54456;48.436;10.028;2023-06-14T09:32:27;7.17;;;3.43;;
67675;SDS011;54456;48.436;10.028;2023-06-14T09:33:57;7.63;;;3.20;;
67675;SDS011;54456;48.436;10.028;2023-06-14T09:35:28;7.75;;;3.45;;
67675;SDS011;54456;48.436;10.028;2023-06-14T09:37:01;8.20;;;3.30;;
67675;SDS011;54456;48.436;10.028;2023-06-14T09:38:32;8.27;;;3.40;;
67675;SDS011;54456;48.436;10.028;2023-06-14T09:40:04;9.65;;;3.25;;
67675;SDS011;54456;48.436;10.028;2023-06-14T09:41:37;7.25;;;3.25;;
67675;SDS011;54456;48.436;10.028;2023-06-14T09:43:09;9.75;;;3.50;;
67675;SDS011;54456;48.436;10.028;2023-06-14T09:44:40;7.25;;;3.63;;
67675;SDS011;54456;48.436;10.028;2023-06-14T09:46:10;7.80;;;3.53;;
67675;SDS011;54456;48.436;10.028;2023-06-14T09:47:40;9.60;;;3.70;;
67675;SDS011;54456;48.436;10.028;2023-06-14T09:49:11;9.18;;;3.22;;
67675;SDS011;54456;48.436;10.028;2023-06-14T09:50:41;8.02;;;3.40;;
67675;SDS011;54456;48.436;10.028;2023-06-14T09:52:15;10.23;;;3.33;;
67675;SDS011;54456;48.436;10.028;2023-06-14T09:53:49;7.03;;;3.10;;
67675;SDS011;54456;48.436;10.028;2023-06-14T09:55:20;8.85;;;3.40;;
67675;SDS011;54456;48.436;10.028;2023-06-14T09:56:50;7.50;;;3.15;;
67675;SDS011;54456;48.436;10.028;2023-06-14T09:58:21;7.40;;;3.60;;
67675;SDS011;54456;48.436;10.028;2023-06-14T09:59:53;7.90;;;3.38;;
67675;SDS011;54456;48.436;10.028;2023-06-14T10:01:30;7.47;;;3.20;;
67675;SDS011;54456;48.436;10.028;2023-06-14T10:03:03;6.82;;;3.38;;
67675;SDS011;54456;48.436;10.028;2023-06-14T10:06:31;9.95;;;3.75;;
67675;SDS011;54456;48.436;10.028;2023-06-14T10:08:05;7.85;;;3.70;;
67675;SDS011;54456;48.436;10.028;2023-06-14T10:09:38;7.72;;;3.80;;
67675;SDS011;54456;48.436;10.028;2023-06-14T10:11:12;8.55;;;3.70;;
67675;SDS011;54456;48.436;10.028;2023-06-14T10:12:43;7.85;;;3.60;;
67675;SDS011;54456;48.436;10.028;2023-06-14T10:14:13;8.25;;;3.40;;
67675;SDS011;54456;48.436;10.028;2023-06-14T10:17:43;9.85;;;3.50;;
67675;SDS011;54456;48.436;10.028;2023-06-14T10:19:18;7.72;;;3.50;;
67675;SDS011;54456;48.436;10.028;2023-06-14T10:22:39;8.30;;;3.45;;
67675;SDS011;54456;48.436;10.028;2023-06-14T10:24:13;7.75;;;3.30;;
67675;SDS011;54456;48.436;10.028;2023-06-14T10:25:49;6.97;;;3.08;;
67675;SDS011;54456;48.436;10.028;2023-06-14T10:27:20;7.00;;;3.30;;
67675;SDS011;54456;48.436;10.028;2023-06-14T10:29:01;7.78;;;3.45;;
67675;SDS011;54456;48.436;10.028;2023-06-14T10:30:38;7.30;;;3.55;;
67675;SDS011;54456;48.436;10.028;2023-06-14T10:32:08;6.87;;;3.43;;
67675;SDS011;54456;48.436;10.028;2023-06-14T10:33:40;7.57;;;3.55;;
67675;SDS011;54456;48.436;10.028;2023-06-14T10:35:20;6.93;;;3.10;;
67675;SDS011;54456;48.436;10.028;2023-06-14T10:37:08;7.70;;;3.42;;
67675;SDS011;54456;48.436;10.028;2023-06-14T10:38:41;7.93;;;3.40;;
67675;SDS011;54456;48.436;10.028;2023-06-14T10:40:26;7.68;;;3.40;;
67675;SDS011;54456;48.436;10.028;2023-06-14T10:42:01;7.55;;;3.42;;
67675;SDS011;54456;48.436;10.028;2023-06-14T10:43:34;10.07;;;3.50;;
67675;SDS011;54456;48.436;10.028;2023-06-14T10:45:04;6.53;;;3.28;;
67675;SDS011;54456;48.436;10.028;2023-06-14T10:46:35;8.07;;;3.20;;
67675;SDS011;54456;48.436;10.028;2023-06-14T10:48:05;8.13;;;3.63;;
67675;SDS011;54456;48.436;10.028;2023-06-14T10:51:39;7.60;;;3.50;;
67675;SDS011;54456;48.436;10.028;2023-06-14T10:53:22;7.18;;;3.53;;
67675;SDS011;54456;48.436;10.028;2023-06-14T10:55:00;9.57;;;4.40;;
67675;SDS011;54456;48.436;10.028;2023-06-14T10:56:48;8.30;;;3.40;;
67675;SDS011;54456;48.436;10.028;2023-06-14T10:58:19;6.72;;;3.38;;
67675;SDS011;54456;48.436;10.028;2023-06-14T10:59:50;9.02;;;3.00;;
67675;SDS011;54456;48.436;10.028;2023-06-14T11:01:23;8.70;;;3.40;;
67675;SDS011;54456;48.436;10.028;2023-06-14T11:04:46;7.20;;;3.70;;
67675;SDS011;54456;48.436;10.028;2023-06-14T11:06:22;8.65;;;3.85;;
67675;SDS011;54456;48.436;10.028;2023-06-14T11:11:23;8.57;;;3.95;;
67675;SDS011;54456;48.436;10.028;2023-06-14T11:13:01;7.20;;;3.30;;
67675;SDS011;54456;48.436;10.028;2023-06-14T11:14:31;6.93;;;3.60;;
67675;SDS011;54456;48.436;10.028;2023-06-14T11:16:01;7.97;;;3.50;;
67675;SDS011;54456;48.436;10.028;2023-06-14T11:17:32;7.20;;;3.28;;
67675;SDS011;54456;48.436;10.028;2023-06-14T11:19:06;7.47;;;3.58;;
67675;SDS011;54456;48.436;10.028;2023-06-14T11:20:36;6.80;;;3.70;;
67675;SDS011;54456;48.436;10.028;2023-06-14T11:22:07;8.73;;;3.30;;
67675;SDS011;54456;48.436;10.028;2023-06-14T11:23:37;7.97;;;3.38;;
67675;SDS011;54456;48.436;10.028;2023-06-14T11:25:13;7.97;;;3.67;;
67675;SDS011;54456;48.436;10.028;2023-06-14T11:26:46;8.45;;;3.72;;
67675;SDS011;54456;48.436;10.028;2023-06-14T11:28:17;6.72;;;3.42;;
67675;SDS011;54456;48.436;10.028;2023-06-14T11:29:49;8.02;;;3.42;;
67675;SDS011;54456;48.436;10.028;2023-06-14T11:31:20;7.93;;;3.40;;
67675;SDS011;54456;48.436;10.028;2023-06-14T11:32:52;6.90;;;3.53;;
67675;SDS011;54456;48.436;10.028;2023-06-14T11:34:24;7.68;;;3.38;;
67675;SDS011;54456;48.436;10.028;2023-06-14T11:35:54;8.07;;;3.70;;
67675;SDS011;54456;48.436;10.028;2023-06-14T11:37:25;6.93;;;3.45;;
67675;SDS011;54456;48.436;10.028;2023-06-14T11:38:59;7.30;;;3.35;;
67675;SDS011;54456;48.436;10.028;2023-06-14T11:40:30;9.75;;;3.40;;
67675;SDS011;54456;48.436;10.028;2023-06-14T11:42:01;7.45;;;3.72;;
67675;SDS011;54456;48.436;10.028;2023-06-14T11:43:34;7.97;;;3.45;;
67675;SDS011;54456;48.436;10.028;2023-06-14T11:45:08;8.48;;;3.63;;
67675;SDS011;54456;48.436;10.028;2023-06-14T11:46:40;7.57;;;3.33;;
67675;SDS011;54456;48.436;10.028;2023-06-14T11:48:10;8.40;;;3.65;;
67675;SDS011;54456;48.436;10.028;2023-06-14T11:49:40;7.00;;;3.30;;
67675;SDS011;54456;48.436;10.028;2023-06-14T11:51:11;8.57;;;3.53;;
67675;SDS011;54456;48.436;10.028;2023-06-14T11:52:42;7.97;;;3.47;;
67675;SDS011;54456;48.436;10.028;2023-06-14T11:54:12;7.70;;;3.30;;
67675;SDS011;54456;48.436;10.028;2023-06-14T11:55:42;7.13;;;3.88;;
67675;SDS011;54456;48.436;10.028;2023-06-14T11:57:15;7.18;;;3.47;;
67675;SDS011;54456;48.436;10.028;2023-06-14T11:58:47;8.15;;;3.40;;
67675;SDS011;54456;48.436;10.028;2023-06-14T12:00:18;8.77;;;3.70;;
67675;SDS011;54456;48.436;10.028;2023-06-14T12:01:54;6.53;;;3.40;;
67675;SDS011;54456;48.436;10.028;2023-06-14T12:03:25;8.15;;;3.75;;
67675;SDS011;54456;48.436;10.028;2023-06-14T12:05:03;6.82;;;3.50;;
67675;SDS011;54456;48.436;10.028;2023-06-14T12:06:35;6.78;;;3.30;;
67675;SDS011;54456;48.436;10.028;2023-06-14T12:08:09;7.90;;;3.78;;
67675;SDS011;54456;48.436;10.028;2023-06-14T12:11:32;8.02;;;3.60;;
67675;SDS011;54456;48.436;10.028;2023-06-14T12:13:03;8.02;;;3.38;;
67675;SDS011;54456;48.436;10.028;2023-06-14T12:14:33;7.88;;;3.40;;
67675;SDS011;54456;48.436;10.028;2023-06-14T12:16:04;7.53;;;3.60;;
67675;SDS011;54456;48.436;10.028;2023-06-14T12:17:35;7.40;;;3.65;;
67675;SDS011;54456;48.436;10.028;2023-06-14T12:19:11;7.20;;;3.30;;
67675;SDS011;54456;48.436;10.028;2023-06-14T12:20:49;7.95;;;3.53;;
67675;SDS011;54456;48.436;10.028;2023-06-14T12:22:20;7.00;;;3.30;;
67675;SDS011;54456;48.436;10.028;2023-06-14T12:23:51;6.65;;;3.47;;
67675;SDS011;54456;48.436;10.028;2023-06-14T12:25:26;8.97;;;3.50;;
67675;SDS011;54456;48.436;10.028;2023-06-14T12:26:58;9.63;;;3.50;;
67675;SDS011;54456;48.436;10.028;2023-06-14T12:28:34;7.72;;;3.67;;
67675;SDS011;54456;48.436;10.028;2023-06-14T12:30:04;6.50;;;3.28;;
67675;SDS011;54456;48.436;10.028;2023-06-14T12:31:37;7.78;;;3.35;;
67675;SDS011;54456;48.436;10.028;2023-06-14T12:33:08;7.32;;;3.60;;
67675;SDS011;54456;48.436;10.028;2023-06-14T12:34:38;8.40;;;3.10;;
67675;SDS011;54456;48.436;10.028;2023-06-14T12:36:09;8.43;;;3.50;;